This “Stock Picks Under $50” board lists the growth stocks as they breakout from our potential growth stocks breakout watch list. These stocks display decent fundamental and technical qualities and priced under $50 or even under $10 or $5. The stocks will be kept in open positions as they don’t trigger the sell rules. The stop-loss level is -8%, and we follow that one rule without any reservations. Click the “Details” link to view the analysis, buying price ranges, stop-loss level, sell rule projection and other details.

Ticker Name Curr Price Ent Price Ent Date Gain Details
TTEC TeleTech Holdings Inc. 29.23 29.23 07-23-14 0.00 Details
FET Forum Energy Technologies, Inc. 36.72 36.56 07-22-14 0.44 Details
KNX Knight Transportation Inc. 25.08 25.28 07-22-14 -0.79 Details
SHLM A. Schulman, Inc. 41.48 42.01 07-22-14 -1.26 Details
POL PolyOne Corporation 42.21 42.31 07-22-14 -0.24 Details
QLTY Quality Distribution Inc. 15.42 15.46 07-22-14 -0.26 Details
SAIA Saia, Inc. 46.52 45.26 07-18-14 2.78 Details
SMCI Super Micro Computer, Inc. 25.76 25.43 07-18-14 1.30 Details
BEE Strategic Hotels & Resorts, Inc 12.26 12.01 07-16-14 2.08 Details
SEMI SunEdison Semiconductor Limited 17.25 17.90 07-16-14 -3.63 Details
KANG iKang Healthcare Group, Inc. 18.77 19.05 07-16-14 -1.47 Details
AHT Ashford Hospitality Trust, Inc. 11.99 11.90 07-16-14 0.76 Details
CENX Century Aluminum Co. 18.59 17.47 07-14-14 6.41 Details
WLB Westmoreland Coal Co. 42.10 40.00 07-14-14 5.25 Details
PATK Patrick Industries Inc. 46.05 46.57 07-10-14 -1.12 Details
GFN General Finance Corporation 9.34 9.77 07-10-14 -4.40 Details
ATHL Athlon Energy Inc. 50.76 48.42 07-10-14 4.83 Details
TEP Tallgrass Energy Partners, LP 40.86 41.96 07-10-14 -2.62 Details
TAX JTH Holding, Inc. 34.05 33.80 07-10-14 0.74 Details
PTSI P.A.M. Transportation Services, Inc 34.28 29.50 07-10-14 16.20 Details
GPRE Green Plains Renewable Energy, Inc. 39.33 35.30 07-10-14 11.42 Details
REGN Regeneron Pharmaceuticals, Inc. 310.27 310.93 07-10-14 -0.21 Details
OCIR OCI Resources LP 25.50 25.44 07-07-14 0.24 Details
LGIH LGI Homes, Inc. 20.02 19.29 07-07-14 3.78 Details
JBSS John B Sanfilippo & Son Inc. 26.63 27.68 07-07-14 -3.79 Details
CGNX Cognex Corporation 39.04 39.73 07-07-14 -1.74 Details
CDNS Cadence Design Systems, Inc. 16.93 17.56 07-03-14 -3.59 Details
EEFT Euronet Worldwide Inc. 48.63 49.79 07-03-14 -2.33 Details
PTC PTC Inc. 38.02 38.99 07-03-14 -2.49 Details
SUSP Susser Petroleum Partners LP 50.72 47.69 07-03-14 6.35 Details
WWAV The WhiteWave Foods Company 31.02 32.27 07-03-14 -3.87 Details
CTCT Constant Contact, Inc. 32.55 33.31 07-03-14 -2.28 Details
LDL Lydall Inc. 26.56 28.30 07-02-14 -6.15 Details
ESCA Escalade Inc. 16.57 16.04 07-02-14 3.30 Details
GMK Gruma S.A.B. de CV 48.28 47.80 07-02-14 1.00 Details
TRN Trinity Industries Inc. 45.12 44.88 07-02-14 0.53 Details
BMA Banco Macro S.A. 41.85 38.51 07-02-14 8.67 Details
THRM Gentherm Incorporated 48.65 45.33 07-02-14 7.32 Details
GB Greatbatch, Inc. 50.32 49.80 07-01-14 1.04 Details
SMM Salient Midstream Common Shares 29.10 29.60 06-30-14 -1.69 Details
FTNT Fortinet, Inc. 24.03 25.13 06-30-14 -4.38 Details
PEGI Pattern Energy Group Inc. 33.67 33.11 06-30-14 1.69 Details
MCS The Marcus Corporation 19.31 18.44 06-27-14 4.72 Details
KOG Kodiak Oil & Gas Corp. 16.00 14.45 06-27-14 10.73 Details
NHF NexPoint Credit Strategies Fund 12.25 12.13 06-27-14 0.99 Details
NGL NGL Energy Partners LP 43.15 43.55 06-26-14 -0.92 Details
MPWR Monolithic Power Systems Inc. 40.77 41.62 06-26-14 -2.04 Details
DRII Diamond Resorts International, Inc. 23.22 23.31 06-26-14 -0.39 Details
PDS Precision Drilling Corporation 13.73 13.95 06-26-14 -1.58 Details
RES RPC Inc. 24.91 23.30 06-25-14 6.91 Details
UEIC Universal Electronics Inc. 50.40 48.02 06-25-14 4.96 Details
SIMO Silicon Motion Technology Corp. 23.29 18.84 06-25-14 23.62 Details
SANM Sanmina Corporation 23.64 22.85 06-25-14 3.46 Details
PTEN Patterson-UTI Energy Inc 36.72 34.09 06-25-14 7.71 Details
CJES C&J Energy Services, Inc. 33.66 32.81 06-25-14 2.59 Details
SQBG Sequential Brands Group, Inc. 13.99 11.43 06-23-14 22.40 Details
AKRX Akorn, Inc. 34.32 28.17 06-02-14 21.83 Details
SLCA U.S. Silica Holdings, Inc. 60.22 42.24 04-21-14 42.57 Details
PSXP Phillips 66 Partners LP 68.59 40.92 02-10-14 67.62 Details


Recently Closed Positions:

Ticker Name Gain Eixt Price Exit Date Details
FTK Flotek Industries Inc. 1.87 32.13 07-23-14 Details
HOLI HollySys Automation Technologies, Ltd. -0.93 23.45 07-23-14 Details
CDW CDW Corporation -1.83 31.18 07-23-14 Details
ERF Enerplus Corporation 1.25 24.21 07-23-14 Details
JBLU JetBlue Airways Corporation 8.36 11.28 07-23-14 Details
View All Closed Positions >>>